San Antonio, Valles Caldera, New Mexico Weather observations

Data are for 10 minute period ending at time listed.
 Day   Time   Solar   Ave.   Ave.  Ave.  Vector  Max.   Baro.   Total    
  of    of     Rad.   Air    Rel.  Wind   Wind   Wind  Press.  Precip.   
Year   Day            Temp.  Hum.  Speed  Dir.   Gust                    
2015   (MST)  Kw/m2    F      %     mph   deg.    mph    mb.     in.     
-------------------------------------------------------------------------
 185    0:00   0.00   50.0    94    0.2   142     1.2   399.3    0.00 
 185    0:10   0.00   49.4    94    0.7    46     2.4   399.3    0.00 
 185    0:20   0.00   49.5    94    0.0   264     1.2   399.3    0.00 
 185    0:30   0.00   49.5    94    0.7    48     3.0   399.3    0.00 
 185    0:40   0.00   49.2    94    0.5   150     2.4   399.3    0.00 
 185    0:50   0.00   49.3    95    1.5    11     3.0   399.3    0.00 
 185    1:00   0.00   49.0    94    0.7   282     3.0   399.3    0.00 
 185    1:10   0.00   48.5    94    0.0     0     0.0   399.3    0.00 
 185    1:20   0.00   48.6    95    0.2   117     1.8   399.3    0.00 
 185    1:30   0.00   48.3    95    0.4    16     2.4   399.3    0.00 
 185    1:40   0.00   48.1    95    0.3   270     2.4   399.3    0.00 
 185    1:50   0.00   48.1    95    0.2   172     1.2   399.3    0.00 
 185    2:00   0.00   48.0    95    0.8   347     2.4   399.3    0.00 
 185    2:10   0.00   48.1    95    0.4   150     2.4   399.3    0.00 
 185    2:20   0.00   48.0    95    1.9   346     3.0   399.3    0.00 
 185    2:30   0.00   48.2    95    0.5    84     3.0   399.3    0.00 
 185    2:40   0.00   48.1    95    1.0   267     4.2   399.3    0.00 
 185    2:50   0.00   47.6    95    1.5    10     3.0   399.3    0.00 
 185    3:00   0.00   47.8    95    0.3   194     1.8   399.3    0.00 
 185    3:10   0.00   47.6    95    0.4   256     2.4   399.3    0.00 
 185    3:20   0.00   47.6    95    1.1   286     3.6   399.3    0.00 
 185    3:30   0.00   47.7    95    1.3   125     3.0   399.3    0.00 
 185    3:40   0.00   47.6    95    2.1   178     4.8   399.3    0.00 
 185    3:50   0.00   47.8    96    2.9   287     6.0   399.3    0.00 
 185    4:00   0.00   47.8    96    2.1   155     4.2   399.3    0.00 
 185    4:10   0.00   47.9    96    2.5    48     4.2   399.3    0.00 
 185    4:20   0.00   47.9    95    1.1   303     2.4   399.3    0.00 
 185    4:30   0.00   47.7    95    1.1    57     3.0   399.3    0.00 
 185    4:40   0.00   47.5    95    0.8   131     2.4   399.3    0.00 
 185    4:50   0.00   47.4    95    0.2    36     1.8   399.3    0.00 
 185    5:00   0.01   47.6    95    0.3    70     1.8   399.3    0.00 
 185    5:10   0.01   47.9    95    0.0     0     0.0   399.3    0.00 
 185    5:20   0.01   48.1    95    0.0     0     0.0   399.3    0.00 
 185    5:30   0.02   48.3    95    0.2   255     1.8   399.3    0.00 
 185    5:40   0.04   48.5    95    0.0     0     0.0   399.3    0.00 
 185    5:50   0.07   49.1    95    0.0     0     0.0   399.3    0.00 
 185    6:00   0.09   49.8    95    0.0     0     0.0   399.6    0.00 
 185    6:10   0.09   50.4    94    0.6   232     3.0   399.3    0.00 
 185    6:20   0.07   50.7    94    0.3    41     1.8   399.3    0.00 
 185    6:30   0.06   51.3    93    0.1    98     1.2   399.3    0.00 
 185    6:40   0.08   51.9    92    0.9    47     1.8   398.9    0.00 
 185    6:50   0.23   54.2    89    0.0    53     1.2   399.3    0.00 
 185    7:00   0.31   59.1    78    0.0     0     0.0   398.9    0.00 
 185    7:10   0.34   62.6    70    0.9   247     2.4   398.9    0.00 
 185    7:20   0.38   62.0    71    1.3   127     3.6   398.9    0.00 
 185    7:30   0.41   62.6    70    0.9   117     3.0   398.9    0.00 
 185    7:40   0.45   63.5    70    1.7    93     3.0   399.3    0.00 
 185    7:50   0.47   67.4    63    1.4   312     4.2   399.6    0.00 
 185    8:00   0.50   71.6    52    2.9   304     5.4   399.9    0.00 
 185    8:10   0.54   73.4    49    2.6   333     5.4   399.9    0.00 
 185    8:20   0.57   73.5    48    3.3   287     5.4   400.3    0.00 
 185    8:30   0.61   70.7    52    2.5    61     4.2   400.3    0.00 
 185    8:40   0.67   72.1    51    2.7   234     7.2   400.6    0.00 
 185    8:50   0.78   70.9    55    3.9   232     7.8   401.3    0.00 
 185    9:00   0.62   70.5    55    4.5   252     7.2   401.3    0.00 
 185    9:10   0.21   68.4    58    5.6   268    11.3   400.9    0.00 
 185    9:20   0.50   69.2    57    3.6   283     6.6   401.3    0.00 
 185    9:30   0.50   69.2    57    5.7   258     9.0   400.9    0.00 
 185    9:40   0.96   71.1    55    4.9   233     9.0   401.6    0.00 
 185    9:50   0.30   69.8    55    7.0   245    13.1   400.9    0.00 
 185   10:00   0.15   67.0    58    8.4   300    12.5   400.6    0.00 
 185   10:10   0.17   64.7    67    6.1   336    11.3   400.9    0.01 
 185   10:20   0.14   62.1    71    5.6     4     8.4   400.3    0.00 
 185   10:30   0.11   61.4    68    3.3   326     6.0   399.9    0.00 
 185   10:40   0.10   61.6    67    3.5    23     6.6   399.6    0.00 
 185   10:50   0.11   62.2    68    2.0    24     4.2   399.6    0.00 
 185   11:00   0.11   60.5    70    6.5   136    10.8   399.3    0.00 
 185   11:10   0.12   59.5    73    7.7   120    13.1   399.6    0.00 
 185   11:20   0.14   59.7    72    9.3   112    12.5   399.6    0.00 
 185   11:30   0.16   59.5    71    9.6   104    13.7   399.3    0.00 
 185   11:40   0.30   60.0    69    9.8   111    13.7   399.6    0.00 
 185   11:50   0.88   61.7    68    8.6   117    11.9   399.6    0.00 
 185   12:00   1.02   64.0    62    9.5   124    14.9   400.3    0.00 
 185   12:10   0.33   63.4    61   10.3   123    16.1   399.6    0.00 
 185   12:20   0.31   62.3    59   10.0   108    16.7   399.6    0.00 
 185   12:30   0.34   62.6    61    9.2   124    13.1   399.6    0.00 
 185   12:40   0.38   62.3    67    9.2   122    13.1   399.6    0.00 
 185   12:50   0.42   63.8    62    7.4   129    12.5   399.6    0.00 
 185   13:00   0.36   63.9    58    7.5   112    11.9   399.6    0.00 
 185   13:10   0.40   64.8    55    4.4   123     7.8   399.6    0.00 
 185   13:20   0.32   65.1    55    4.6   142     6.0   399.9    0.00 
 185   13:30   0.31   65.4    52    4.0   154     5.4   399.6    0.00 
 185   13:40   0.36   65.9    53    3.1   143     4.2   399.6    0.00 
 185   13:50   0.34   66.5    54    4.2   138     6.6   399.6    0.00 
 185   14:00   0.27   65.8    56    5.4   134     7.2   399.6    0.00 
 185   14:10   0.22   65.8    57    3.2   156     4.8   399.6    0.00 
 185   14:20   0.18   66.2    57    1.2   155     3.6   399.9    0.00 
 185   14:30   0.18   66.4    56    1.4   192     2.4   399.9    0.00 
 185   14:40   0.21   66.5    55    1.1   240     2.4   399.6    0.00 
 185   14:50   0.29   67.3    53    0.9   227     2.4   399.9    0.00 
 185   15:00   0.39   68.6    52    1.6   265     3.0   399.9    0.00 
 185   15:10   0.41   70.2    50    1.0   283     2.4   400.3    0.00 
 185   15:20   0.44   71.2    49    2.4   259     4.2   400.3    0.00 
 185   15:30   0.59   71.0    51    3.4   284     6.0   400.6    0.00 
 185   15:40   0.77   73.7    46    4.3   299     8.4   401.3    0.00 
 185   15:50   0.73   75.7    43    4.6   286     8.4   401.3    0.00 
 185   16:00   0.62   76.4    39    4.2   295     7.8   401.3    0.00 
 185   16:10   0.43   74.4    40    5.9   260     9.0   401.3    0.00 
 185   16:20   0.32   71.9    45    5.2   251     9.6   401.3    0.00 
 185   16:30   0.28   71.1    44    5.4   265     7.8   401.3    0.00 
 185   16:40   0.29   70.6    46    6.4   266     9.6   400.9    0.00 
 185   16:50   0.24   69.9    49    7.2   268     9.6   400.9    0.00 
 185   17:00   0.20   68.6    53    6.1   252     9.0   400.9    0.00 
 185   17:10   0.17   67.8    55    4.2   250     6.6   400.6    0.00 
 185   17:20   0.15   67.4    53    5.3   269     9.6   400.3    0.00 
 185   17:30   0.13   67.2    56    3.6   266     6.6   400.3    0.00 
 185   17:40   0.12   66.7    56    2.6   248     4.2   400.3    0.00 
 185   17:50   0.11   66.7    56    2.9   294     4.8   399.9    0.00 
 185   18:00   0.10   66.7    56    1.7   298     2.4   399.9    0.00 
 185   18:10   0.08   66.7    58    1.4   297     2.4   399.9    0.00 
 185   18:20   0.07   66.2    60    1.8   295     3.0   399.6    0.00 
 185   18:30   0.06   65.3    61    2.0   337     3.6   399.6    0.00 
 185   18:40   0.04   64.5    61    2.3   357     4.2   399.6    0.00 
 185   18:50   0.03   63.9    63    2.2    10     4.2   399.6    0.00 
 185   19:00   0.02   63.1    64    3.0    19     4.2   399.3    0.00 
 185   19:10   0.01   62.4    65    3.4    17     4.8   399.3    0.00 
 185   19:20   0.00   62.0    65    3.3    14     5.4   399.3    0.00 
 185   19:30   0.00   61.5    67    3.0    25     4.2   399.3    0.00 
 185   19:40   0.00   60.9    69    3.0    25     4.8   399.3    0.00 
 185   19:50   0.00   60.8    67    3.0    18     4.2   398.9    0.00 
 185   20:00   0.00   60.4    70    1.6    29     3.0   399.3    0.00 
 185   20:10   0.00   59.6    73    0.6    17     3.0   398.9    0.00 
 185   20:20   0.00   58.9    71    2.7    22     3.6   398.9    0.00 
 185   20:30   0.00   58.7    71    0.8    18     3.0   398.9    0.00 
 185   20:40   0.00   58.5    71    0.0   333     1.2   398.9    0.00 
 185   20:50   0.00   58.3    71    2.3    34     3.6   398.6    0.00 
 185   21:00   0.00   58.1    72    2.1    31     3.6   398.6    0.00 
 185   21:10   0.00   57.8    73    1.6    59     3.6   398.6    0.00 
 185   21:20   0.00   57.5    74    2.5   356     4.2   398.6    0.00 
 185   21:30   0.00   57.5    75    1.6    35     3.6   398.6    0.00 
 185   21:40   0.00   56.5    78    0.8    67     2.4   398.9    0.00 
 185   21:50   0.00   56.6    76    1.4    45     3.6   398.6    0.00 
 185   22:00   0.00   56.7    75    2.6    37     4.2   398.6    0.00 
 185   22:10   0.00   56.5    78    2.6   142     4.2   398.6    0.00 
 185   22:20   0.00   55.5    83    4.5   111     6.0   398.9    0.00 
 185   22:30   0.00   56.0    81    3.8    94     6.6   398.9    0.00 
 185   22:40   0.00   56.3    79    2.0    37     3.6   398.6    0.00 
 185   22:50   0.00   55.8    82    1.1   117     2.4   398.9    0.00 
 185   23:00   0.00   55.1    84    0.2    57     1.2   398.9    0.00 
 185   23:10   0.00   54.9    85    1.0   152     3.0   398.9    0.00 
 185   23:20   0.00   54.6    85    1.3    28     3.0   398.9    0.00 

Return to San Antonio, Valles Caldera graphs page.


Western Regional Climate Center,wrcc@dri.edu